Time;durP1;ratioP1;P1;durP2;ratioP2;P2;SDS_P1;SDS_P2;PMS_P1;PMS_P2;Temp;Humidity;BMP_temperature;BMP_pressure;BME280_temperature;BME280_humidity;BME280_pressure;Samples;Min_cycle;Max_cycle;Signal;HPM_P1;HPM_P2
2022/06/03 00:01:01;;;;;;;;;;;;;;;;;;5111551;28;1002;-70
2022/06/03 00:03:46;;;;;;;;;;;;;;;;;;5110677;28;1064;-70
2022/06/03 00:06:50;;;;;;;;;;;;;;;;;;5110805;28;972;-70
2022/06/03 00:09:37;;;;;;;;;;;;;;;;;;5068332;28;1224;-70
2022/06/03 00:12:23;;;;;;;;;;;;;;;;;;5067734;28;1964;-70
2022/06/03 00:15:07;;;;;;;;;;;;;;;;;;5094212;28;1255;-70
2022/06/03 00:17:32;;;;;;;;;;;;;;;;;;5110877;28;1010;-69
2022/06/03 00:20:07;;;;;;;;;;;;;;;;;;5111509;28;888;-70
2022/06/03 00:22:57;;;;;;;;;;;;;;;;;;5111224;28;907;-70
2022/06/03 00:25:26;;;;;;;;;;;;;;;;;;5111553;28;1002;-69
2022/06/03 00:27:57;;;;;;;;;;;;;;;;;;5111714;28;870;-70
2022/06/03 00:30:32;;;;;;;;;;;;;;;;;;5111473;28;1965;-69
2022/06/03 00:33:36;;;;;;;;;;;;;;;;;;5111457;28;860;-70
2022/06/03 00:36:20;;;;;;;;;;;;;;;;;;5068597;28;1168;-69
2022/06/03 00:38:48;;;;;;;;;;;;;;;;;;5051174;28;1163;-70
2022/06/03 00:41:28;;;;;;;;;;;;;;;;;;5093909;28;1212;-71
2022/06/03 00:43:59;;;;;;;;;;;;;;;;;;5111704;28;1058;-70
2022/06/03 00:46:43;;;;;;;;;;;;;;;;;;5110763;28;903;-62
2022/06/03 00:49:08;;;;;;;;;;;;;;;;;;5112145;28;836;-62
2022/06/03 00:51:39;;;;;;;;;;;;;;;;;;5111273;28;1917;-62
2022/06/03 00:54:07;;;;;;;;;;;;;;;;;;5114582;28;966;-62
2022/06/03 00:56:33;;;;;;;;;;;;;;;;;;5115494;28;1056;-62
2022/06/03 00:59:17;;;;;;;;;;;;;;;;;;5116391;28;843;-62
2022/06/03 01:01:42;;;;;;;;;;;;;;;;;;5115784;28;877;-62
2022/06/03 01:04:08;;;;;;;;;;;;;;;;;;5117078;28;914;-62
2022/06/03 01:06:54;;;;;;;;;;;;;;;;;;5115874;28;820;-62
2022/06/03 01:09:19;;;;;;;;;;;;;;;;;;5115954;28;821;-62
2022/06/03 01:11:56;;;;;;;;;;;;;;;;;;5115199;28;1898;-62
2022/06/03 01:14:36;;;;;;;;;;;;;;;;;;5114876;28;891;-62
2022/06/03 01:17:01;;;;;;;;;;;;;;;;;;5113163;28;1522;-62
2022/06/03 01:19:29;;;;;;;;;;;;;;;;;;5113145;28;1194;-62
2022/06/03 01:22:13;;;;;;;;;;;;;;;;;;5112817;28;1194;-63
2022/06/03 01:24:41;;;;;;;;;;;;;;;;;;5090855;28;1136;-63
2022/06/03 01:27:15;;;;;;;;;;;;;;;;;;5094197;28;939;-63
2022/06/03 01:30:00;;;;;;;;;;;;;;;;;;5094310;28;899;-63
2022/06/03 01:32:39;;;;;;;;;;;;;;;;;;5093285;28;1910;-63
2022/06/03 01:35:10;;;;;;;;;;;;;;;;;;5094050;28;975;-63
2022/06/03 01:37:56;;;;;;;;;;;;;;;;;;5093820;28;1014;-63
2022/06/03 01:40:32;;;;;;;;;;;;;;;;;;5093839;28;848;-63
2022/06/03 01:43:09;;;;;;;;;;;;;;;;;;5092403;28;1416;-63
2022/06/03 01:45:48;;;;;;;;;;;;;;;;;;5094309;28;793;-63
2022/06/03 01:48:35;;;;;;;;;;;;;;;;;;5094125;28;903;-63
2022/06/03 01:51:00;;;;;;;;;;;;;;;;;;5093578;28;1957;-63
2022/06/03 01:53:44;;;;;;;;;;;;;;;;;;5093919;28;983;-63
2022/06/03 01:56:16;;;;;;;;;;;;;;;;;;5092249;28;1216;-62
2022/06/03 01:58:44;;;;;;;;;;;;;;;;;;5093024;28;848;-62
2022/06/03 02:01:09;;;;;;;;;;;;;;;;;;5094040;28;971;-62
2022/06/03 02:03:52;;;;;;;;;;;;;;;;;;5092503;28;844;-63
2022/06/03 02:06:36;;;;;;;;;;;;;;;;;;5091788;28;1338;-63
2022/06/03 02:09:11;;;;;;;;;;;;;;;;;;5093010;28;876;-63
2022/06/03 02:11:48;;;;;;;;;;;;;;;;;;5092423;28;1957;-63
2022/06/03 02:14:17;;;;;;;;;;;;;;;;;;5093245;28;975;-63
2022/06/03 02:16:43;;;;;;;;;;;;;;;;;;5092712;28;872;-63
2022/06/03 02:19:23;;;;;;;;;;;;;;;;;;5091672;28;1404;-63
2022/06/03 02:22:07;;;;;;;;;;;;;;;;;;5093175;28;900;-63
2022/06/03 02:24:51;;;;;;;;;;;;;;;;;;5090938;28;677;-63
2022/06/03 02:27:34;;;;;;;;;;;;;;;;;;5093610;28;837;-64
2022/06/03 02:30:32;;;;;;;;;;;;;;;;;;5091464;28;1230;-63
2022/06/03 02:33:13;;;;;;;;;;;;;;;;;;5069030;28;1378;-63
2022/06/03 02:35:41;;;;;;;;;;;;;;;;;;5092373;28;915;-63
2022/06/03 02:38:21;;;;;;;;;;;;;;;;;;5091767;28;1226;-64
2022/06/03 02:41:05;;;;;;;;;;;;;;;;;;5093033;28;880;-63
2022/06/03 02:43:39;;;;;;;;;;;;;;;;;;5092222;28;998;-63
2022/06/03 02:46:23;;;;;;;;;;;;;;;;;;5091564;28;733;-63
2022/06/03 02:49:07;;;;;;;;;;;;;;;;;;5092883;28;994;-64
2022/06/03 02:51:32;;;;;;;;;;;;;;;;;;5092132;28;1894;-63
2022/06/03 02:54:03;;;;;;;;;;;;;;;;;;5091841;28;1205;-63
2022/06/03 02:56:34;;;;;;;;;;;;;;;;;;5092144;28;892;-63
2022/06/03 02:59:18;;;;;;;;;;;;;;;;;;5092682;28;941;-63
2022/06/03 03:01:56;;;;;;;;;;;;;;;;;;5092344;28;777;-63
2022/06/03 03:04:41;;;;;;;;;;;;;;;;;;5092475;28;892;-63
2022/06/03 03:07:07;;;;;;;;;;;;;;;;;;5092211;28;1200;-63
2022/06/03 03:09:35;;;;;;;;;;;;;;;;;;5092329;28;919;-63
2022/06/03 03:12:00;;;;;;;;;;;;;;;;;;5092386;28;1963;-63
2022/06/03 03:14:26;;;;;;;;;;;;;;;;;;5092515;28;1026;-63
2022/06/03 03:17:10;;;;;;;;;;;;;;;;;;5091209;28;887;-63
2022/06/03 03:19:41;;;;;;;;;;;;;;;;;;5090126;28;907;-63
2022/06/03 03:22:25;;;;;;;;;;;;;;;;;;5092656;28;971;-63
2022/06/03 03:24:57;;;;;;;;;;;;;;;;;;5091757;28;912;-63
2022/06/03 03:27:41;;;;;;;;;;;;;;;;;;5092362;28;844;-63
2022/06/03 03:30:17;;;;;;;;;;;;;;;;;;5090945;28;1246;-63
2022/06/03 03:32:52;;;;;;;;;;;;;;;;;;5091505;28;1905;-63
2022/06/03 03:35:36;;;;;;;;;;;;;;;;;;5091558;28;931;-63
2022/06/03 03:38:07;;;;;;;;;;;;;;;;;;5091864;28;674;-63
2022/06/03 03:40:32;;;;;;;;;;;;;;;;;;5091326;28;916;-63
2022/06/03 03:43:07;;;;;;;;;;;;;;;;;;5091561;28;943;-63
2022/06/03 03:45:32;;;;;;;;;;;;;;;;;;5091537;28;840;-63
2022/06/03 03:48:13;;;;;;;;;;;;;;;;;;5091175;28;1042;-63
2022/06/03 03:50:50;;;;;;;;;;;;;;;;;;5091327;28;1913;-63
2022/06/03 03:53:21;;;;;;;;;;;;;;;;;;5091213;28;967;-62
2022/06/03 03:55:46;;;;;;;;;;;;;;;;;;5090636;28;1060;-62
2022/06/03 03:58:30;;;;;;;;;;;;;;;;;;5091288;28;876;-62
2022/06/03 04:00:58;;;;;;;;;;;;;;;;;;5089705;28;1178;-62
2022/06/03 04:03:30;;;;;;;;;;;;;;;;;;5091152;28;1054;-62
2022/06/03 04:06:01;;;;;;;;;;;;;;;;;;5090963;28;1050;-62
2022/06/03 04:08:36;;;;;;;;;;;;;;;;;;5089527;28;1734;-63
2022/06/03 04:11:01;;;;;;;;;;;;;;;;;;5090868;28;1902;-63
2022/06/03 04:13:45;;;;;;;;;;;;;;;;;;5091257;28;790;-63
2022/06/03 04:16:11;;;;;;;;;;;;;;;;;;5090990;28;1046;-63
2022/06/03 04:18:39;;;;;;;;;;;;;;;;;;5090846;28;907;-64
2022/06/03 04:21:23;;;;;;;;;;;;;;;;;;5090143;28;1183;-63
2022/06/03 04:23:52;;;;;;;;;;;;;;;;;;5088933;28;1080;-63
2022/06/03 04:26:20;;;;;;;;;;;;;;;;;;5102743;28;1132;-63
2022/06/03 04:28:51;;;;;;;;;;;;;;;;;;5113176;28;1273;-63
2022/06/03 04:31:28;;;;;;;;;;;;;;;;;;5116235;28;2004;-63
2022/06/03 04:34:06;;;;;;;;;;;;;;;;;;5115694;28;998;-63
2022/06/03 04:36:50;;;;;;;;;;;;;;;;;;5115648;28;918;-64
2022/06/03 04:39:34;;;;;;;;;;;;;;;;;;5116493;28;986;-63
2022/06/03 04:41:59;;;;;;;;;;;;;;;;;;5114726;28;1229;-62
2022/06/03 04:44:25;;;;;;;;;;;;;;;;;;5115540;28;962;-62
2022/06/03 04:46:59;;;;;;;;;;;;;;;;;;5115427;28;1049;-63
2022/06/03 04:49:53;;;;;;;;;;;;;;;;;;5115920;28;998;-63
2022/06/03 04:52:37;;;;;;;;;;;;;;;;;;5115922;28;1902;-62
2022/06/03 04:55:02;;;;;;;;;;;;;;;;;;5115058;28;901;-62
2022/06/03 04:57:41;;;;;;;;;;;;;;;;;;5115329;27;840;-62
2022/06/03 05:00:16;;;;;;;;;;;;;;;;;;5115694;27;861;-63
2022/06/03 05:03:01;;;;;;;;;;;;;;;;;;5114906;28;899;-63
2022/06/03 05:05:44;;;;;;;;;;;;;;;;;;5110434;28;1234;-64
2022/06/03 05:08:18;;;;;;;;;;;;;;;;;;5094198;28;1127;-63
2022/06/03 05:10:46;;;;;;;;;;;;;;;;;;5094446;28;1914;-63
2022/06/03 05:13:30;;;;;;;;;;;;;;;;;;5092600;28;1224;-63
2022/06/03 05:16:02;;;;;;;;;;;;;;;;;;5094184;28;817;-63
2022/06/03 05:18:45;;;;;;;;;;;;;;;;;;5094879;28;793;-63
2022/06/03 05:21:32;;;;;;;;;;;;;;;;;;5094339;28;912;-62
2022/06/03 05:24:03;;;;;;;;;;;;;;;;;;5093845;28;1269;-63
2022/06/03 05:26:37;;;;;;;;;;;;;;;;;;5092892;28;1332;-63
2022/06/03 05:29:02;;;;;;;;;;;;;;;;;;5094040;28;1058;-63
2022/06/03 05:31:43;;;;;;;;;;;;;;;;;;5093603;28;1967;-62
2022/06/03 05:34:14;;;;;;;;;;;;;;;;;;5093902;28;836;-62
2022/06/03 05:36:48;;;;;;;;;;;;;;;;;;5094156;28;765;-63
2022/06/03 05:39:16;;;;;;;;;;;;;;;;;;5093143;28;994;-63
2022/06/03 05:44:34;;;;;;;;;;;;;;;;;;5093710;28;682;-63
2022/06/03 05:47:06;;;;;;;;;;;;;;;;;;5093777;28;869;-63
2022/06/03 05:49:34;;;;;;;;;;;;;;;;;;5093432;28;979;-62
2022/06/03 05:52:06;;;;;;;;;;;;;;;;;;5092089;28;1956;-62
2022/06/03 05:54:34;;;;;;;;;;;;;;;;;;5091767;28;1166;-63
2022/06/03 05:57:08;;;;;;;;;;;;;;;;;;5093731;28;884;-62
2022/06/03 05:59:51;;;;;;;;;;;;;;;;;;5093826;28;875;-63
2022/06/03 06:02:29;;;;;;;;;;;;;;;;;;5093938;28;1050;-64
2022/06/03 06:05:12;;;;;;;;;;;;;;;;;;5092528;28;868;-63
2022/06/03 06:07:47;;;;;;;;;;;;;;;;;;5093606;28;907;-64
2022/06/03 06:10:26;;;;;;;;;;;;;;;;;;5093140;28;967;-64
2022/06/03 06:13:05;;;;;;;;;;;;;;;;;;5091321;28;1886;-64
2022/06/03 06:15:48;;;;;;;;;;;;;;;;;;5093260;28;900;-64
2022/06/03 06:18:13;;;;;;;;;;;;;;;;;;5093765;28;859;-64
2022/06/03 06:20:45;;;;;;;;;;;;;;;;;;5093415;28;758;-64
2022/06/03 06:23:13;;;;;;;;;;;;;;;;;;5093733;28;923;-64
2022/06/03 06:25:39;;;;;;;;;;;;;;;;;;5093970;28;852;-63
2022/06/03 06:28:05;;;;;;;;;;;;;;;;;;5093506;28;836;-64
2022/06/03 06:30:49;;;;;;;;;;;;;;;;;;5093257;28;848;-64
2022/06/03 06:33:14;;;;;;;;;;;;;;;;;;5092993;28;899;-64
2022/06/03 06:35:45;;;;;;;;;;;;;;;;;;5092469;28;908;-64
2022/06/03 06:38:16;;;;;;;;;;;;;;;;;;5093631;28;1030;-64
2022/06/03 06:40:41;;;;;;;;;;;;;;;;;;5093773;28;928;-64
2022/06/03 06:43:07;;;;;;;;;;;;;;;;;;5092131;28;1214;-63
2022/06/03 06:45:41;;;;;;;;;;;;;;;;;;5093178;28;1022;-64
2022/06/03 06:48:11;;;;;;;;;;;;;;;;;;5091786;28;1376;-64
2022/06/03 06:50:55;;;;;;;;;;;;;;;;;;5090308;28;1980;-64
2022/06/03 06:53:27;;;;;;;;;;;;;;;;;;5092775;28;750;-64
2022/06/03 06:56:11;;;;;;;;;;;;;;;;;;5092200;28;922;-64
2022/06/03 06:58:42;;;;;;;;;;;;;;;;;;5092599;28;836;-64
2022/06/03 07:01:09;;;;;;;;;;;;;;;;;;5091079;28;1305;-64
2022/06/03 07:03:44;;;;;;;;;;;;;;;;;;5092150;28;821;-63
2022/06/03 07:06:14;;;;;;;;;;;;;;;;;;5092495;28;762;-63
2022/06/03 07:08:42;;;;;;;;;;;;;;;;;;5091249;28;1407;-63
2022/06/03 07:11:28;;;;;;;;;;;;;;;;;;5092939;28;1886;-63
2022/06/03 07:14:04;;;;;;;;;;;;;;;;;;5091363;28;1208;-63
2022/06/03 07:19:47;;;;;;;;;;;;;;;;;;5093419;28;716;-63
2022/06/03 07:22:18;;;;;;;;;;;;;;;;;;5092928;28;805;-63
2022/06/03 07:25:04;;;;;;;;;;;;;;;;;;5093444;28;879;-63
2022/06/03 07:27:35;;;;;;;;;;;;;;;;;;5093350;28;777;-63
2022/06/03 07:30:05;;;;;;;;;;;;;;;;;;5092303;28;1186;-64
2022/06/03 07:32:37;;;;;;;;;;;;;;;;;;5093406;28;1886;-63
2022/06/03 07:35:10;;;;;;;;;;;;;;;;;;5093323;28;892;-63
2022/06/03 07:37:55;;;;;;;;;;;;;;;;;;5092197;28;954;-63
2022/06/03 07:40:24;;;;;;;;;;;;;;;;;;5093565;28;837;-64
2022/06/03 07:42:54;;;;;;;;;;;;;;;;;;5092643;28;880;-63
2022/06/03 07:45:26;;;;;;;;;;;;;;;;;;5093433;28;907;-63
2022/06/03 07:47:52;;;;;;;;;;;;;;;;;;5092217;28;885;-63
2022/06/03 07:50:21;;;;;;;;;;;;;;;;;;5091598;28;848;-63
2022/06/03 07:52:54;;;;;;;;;;;;;;;;;;5091177;28;1889;-63
2022/06/03 07:55:21;;;;;;;;;;;;;;;;;;5091112;28;869;-63
2022/06/03 07:57:50;;;;;;;;;;;;;;;;;;5091300;28;840;-63
2022/06/03 08:00:17;;;;;;;;;;;;;;;;;;5091782;28;908;-63
2022/06/03 08:02:42;;;;;;;;;;;;;;;;;;5091321;28;836;-63
2022/06/03 08:05:10;;;;;;;;;;;;;;;;;;5090665;28;1384;-63
2022/06/03 08:13:11;;;;;;;;;;;;;;;;;;5092091;28;1072;-63
2022/06/03 08:15:39;;;;;;;;;;;;;;;;;;5090125;28;818;-63
2022/06/03 08:18:06;;;;;;;;;;;;;;;;;;5092265;28;881;-63
2022/06/03 08:20:34;;;;;;;;;;;;;;;;;;5091218;28;934;-64
2022/06/03 08:23:00;;;;;;;;;;;;;;;;;;5091941;28;832;-63
2022/06/03 08:25:27;;;;;;;;;;;;;;;;;;5091076;28;931;-70
2022/06/03 08:27:55;;;;;;;;;;;;;;;;;;5090615;28;1002;-70
2022/06/03 08:30:23;;;;;;;;;;;;;;;;;;5090783;28;967;-69
2022/06/03 08:32:55;;;;;;;;;;;;;;;;;;5090378;28;1965;-69
2022/06/03 08:35:25;;;;;;;;;;;;;;;;;;5090433;28;1048;-69
2022/06/03 08:37:53;;;;;;;;;;;;;;;;;;5090611;28;769;-63
2022/06/03 08:40:21;;;;;;;;;;;;;;;;;;5090503;28;781;-63
2022/06/03 08:42:48;;;;;;;;;;;;;;;;;;5090973;28;844;-63
2022/06/03 08:45:32;;;;;;;;;;;;;;;;;;5091179;28;814;-63
2022/06/03 08:48:00;;;;;;;;;;;;;;;;;;5090657;28;900;-62
2022/06/03 08:50:25;;;;;;;;;;;;;;;;;;5090891;28;852;-63
2022/06/03 08:52:57;;;;;;;;;;;;;;;;;;5088829;28;1918;-62
2022/06/03 08:55:26;;;;;;;;;;;;;;;;;;5090788;28;964;-62
2022/06/03 08:57:56;;;;;;;;;;;;;;;;;;5090185;28;805;-63
2022/06/03 09:00:23;;;;;;;;;;;;;;;;;;5090199;28;999;-62
2022/06/03 09:02:57;;;;;;;;;;;;;;;;;;5090165;28;924;-63
2022/06/03 09:05:25;;;;;;;;;;;;;;;;;;5089431;28;845;-63
2022/06/03 09:07:54;;;;;;;;;;;;;;;;;;5090225;28;998;-62
2022/06/03 09:10:24;;;;;;;;;;;;;;;;;;5090821;28;1051;-62
2022/06/03 09:12:49;;;;;;;;;;;;;;;;;;5089947;28;1906;-63
2022/06/03 09:15:19;;;;;;;;;;;;;;;;;;5093026;28;777;-63
2022/06/03 09:18:03;;;;;;;;;;;;;;;;;;5094024;28;892;-62
2022/06/03 09:20:39;;;;;;;;;;;;;;;;;;5092750;28;872;-62
2022/06/03 09:23:08;;;;;;;;;;;;;;;;;;5093671;28;912;-63
2022/06/03 09:25:37;;;;;;;;;;;;;;;;;;5093340;28;982;-63
2022/06/03 09:28:05;;;;;;;;;;;;;;;;;;5093956;28;834;-63
2022/06/03 09:30:32;;;;;;;;;;;;;;;;;;5094213;28;848;-63
2022/06/03 09:33:00;;;;;;;;;;;;;;;;;;5095186;28;1980;-63
2022/06/03 09:35:27;;;;;;;;;;;;;;;;;;5094811;28;892;-63
2022/06/03 09:37:55;;;;;;;;;;;;;;;;;;5094859;28;857;-63
2022/06/03 09:40:31;;;;;;;;;;;;;;;;;;5094502;28;849;-63
2022/06/03 09:42:59;;;;;;;;;;;;;;;;;;5094571;28;892;-63
2022/06/03 09:45:25;;;;;;;;;;;;;;;;;;5094705;28;895;-63
2022/06/03 09:47:51;;;;;;;;;;;;;;;;;;5094013;28;808;-63
2022/06/03 09:50:17;;;;;;;;;;;;;;;;;;5094787;28;899;-63
2022/06/03 09:52:43;;;;;;;;;;;;;;;;;;5094032;28;1955;-63
2022/06/03 09:55:26;;;;;;;;;;;;;;;;;;5093942;28;963;-63
2022/06/03 09:57:54;;;;;;;;;;;;;;;;;;5093125;28;782;-63
2022/06/03 10:00:21;;;;;;;;;;;;;;;;;;5093566;28;959;-63
2022/06/03 10:02:47;;;;;;;;;;;;;;;;;;5093020;28;797;-63
2022/06/03 10:05:16;;;;;;;;;;;;;;;;;;5093419;28;813;-63
2022/06/03 10:07:42;;;;;;;;;;;;;;;;;;5092906;28;871;-63
2022/06/03 10:12:53;;;;;;;;;;;;;;;;;;5092356;28;1914;-62
2022/06/03 10:15:37;;;;;;;;;;;;;;;;;;5093228;28;836;-62
2022/06/03 10:18:23;;;;;;;;;;;;;;;;;;5093488;28;928;-62
2022/06/03 10:20:49;;;;;;;;;;;;;;;;;;5085079;28;1056;-63
2022/06/03 10:23:18;;;;;;;;;;;;;;;;;;5093009;28;1077;-64
2022/06/03 10:25:46;;;;;;;;;;;;;;;;;;5092408;28;825;-64
2022/06/03 10:28:13;;;;;;;;;;;;;;;;;;5093225;28;868;-64
2022/06/03 10:30:41;;;;;;;;;;;;;;;;;;5092439;28;908;-64
2022/06/03 10:33:15;;;;;;;;;;;;;;;;;;5093884;28;1977;-64
2022/06/03 10:35:41;;;;;;;;;;;;;;;;;;5092760;28;955;-63
2022/06/03 10:38:07;;;;;;;;;;;;;;;;;;5093268;28;880;-64
2022/06/03 10:40:33;;;;;;;;;;;;;;;;;;5093347;28;867;-64
2022/06/03 10:43:00;;;;;;;;;;;;;;;;;;5091488;28;1239;-64
2022/06/03 10:45:34;;;;;;;;;;;;;;;;;;5093217;28;843;-64
2022/06/03 10:48:00;;;;;;;;;;;;;;;;;;5092921;28;911;-64
2022/06/03 10:50:35;;;;;;;;;;;;;;;;;;5092760;28;825;-64
2022/06/03 11:01:32;;;;;;;;;;;;;;;;;;5092515;28;676;-63
2022/06/03 11:03:58;;;;;;;;;;;;;;;;;;5092046;28;1336;-64
2022/06/03 11:06:26;;;;;;;;;;;;;;;;;;5091650;28;926;-62
2022/06/03 11:08:51;;;;;;;;;;;;;;;;;;5091177;28;968;-64
2022/06/03 11:11:29;;;;;;;;;;;;;;;;;;5092635;28;1897;-62
2022/06/03 11:13:55;;;;;;;;;;;;;;;;;;5091772;28;1096;-64
2022/06/03 11:16:21;;;;;;;;;;;;;;;;;;5092877;28;939;-64
2022/06/03 11:18:46;;;;;;;;;;;;;;;;;;5091983;28;829;-64
2022/06/03 11:21:17;;;;;;;;;;;;;;;;;;5091448;28;2344;-64
2022/06/03 11:23:42;;;;;;;;;;;;;;;;;;5092623;28;916;-64
2022/06/03 11:26:08;;;;;;;;;;;;;;;;;;5092912;28;813;-63
2022/06/03 11:28:39;;;;;;;;;;;;;;;;;;5090881;28;935;-64
2022/06/03 11:31:27;;;;;;;;;;;;;;;;;;5090808;28;1955;-64
2022/06/03 11:33:56;;;;;;;;;;;;;;;;;;5086147;28;1426;-64
2022/06/03 11:36:27;;;;;;;;;;;;;;;;;;5092464;28;939;-62
2022/06/03 11:39:04;;;;;;;;;;;;;;;;;;5091911;28;824;-62
2022/06/03 11:41:36;;;;;;;;;;;;;;;;;;5092478;28;762;-64
2022/06/03 11:44:02;;;;;;;;;;;;;;;;;;5091713;28;829;-62
2022/06/03 11:46:32;;;;;;;;;;;;;;;;;;5090391;28;1477;-63
2022/06/03 11:48:57;;;;;;;;;;;;;;;;;;5091365;28;951;-65
2022/06/03 11:51:22;;;;;;;;;;;;;;;;;;5091845;28;1897;-63
2022/06/03 11:53:49;;;;;;;;;;;;;;;;;;5091401;28;904;-63
2022/06/03 11:56:17;;;;;;;;;;;;;;;;;;5092025;28;804;-64
2022/06/03 11:58:46;;;;;;;;;;;;;;;;;;5091171;28;912;-64
2022/06/03 12:01:17;;;;;;;;;;;;;;;;;;5092108;28;907;-64
2022/06/03 12:03:54;;;;;;;;;;;;;;;;;;5091017;28;950;-65
2022/06/03 12:06:25;;;;;;;;;;;;;;;;;;5091438;28;922;-66
2022/06/03 12:09:02;;;;;;;;;;;;;;;;;;5091476;28;911;-65
2022/06/03 12:14:28;;;;;;;;;;;;;;;;;;5091873;28;968;-64
2022/06/03 12:16:55;;;;;;;;;;;;;;;;;;5090581;28;852;-64
2022/06/03 12:19:35;;;;;;;;;;;;;;;;;;5089674;28;1257;-64
2022/06/03 12:22:27;;;;;;;;;;;;;;;;;;5091201;28;909;-64
2022/06/03 12:24:52;;;;;;;;;;;;;;;;;;5088336;28;1072;-64
2022/06/03 12:27:26;;;;;;;;;;;;;;;;;;5091085;28;912;-64
2022/06/03 12:30:03;;;;;;;;;;;;;;;;;;5091015;28;912;-64
2022/06/03 12:32:29;;;;;;;;;;;;;;;;;;5091546;28;1967;-64
2022/06/03 12:35:13;;;;;;;;;;;;;;;;;;5091006;28;856;-63
2022/06/03 12:37:38;;;;;;;;;;;;;;;;;;5091691;28;935;-63
2022/06/03 12:40:19;;;;;;;;;;;;;;;;;;5090965;28;999;-63
2022/06/03 12:42:45;;;;;;;;;;;;;;;;;;5091145;28;982;-63
2022/06/03 12:45:13;;;;;;;;;;;;;;;;;;5090704;28;919;-63
2022/06/03 12:47:38;;;;;;;;;;;;;;;;;;5090875;28;1108;-63
2022/06/03 12:50:04;;;;;;;;;;;;;;;;;;5094637;28;991;-63
2022/06/03 12:52:29;;;;;;;;;;;;;;;;;;5094916;28;1887;-63
2022/06/03 12:55:18;;;;;;;;;;;;;;;;;;5094906;28;860;-63
2022/06/03 12:57:49;;;;;;;;;;;;;;;;;;5088825;28;2172;-63
2022/06/03 13:00:17;;;;;;;;;;;;;;;;;;5094387;28;1062;-63
2022/06/03 13:02:48;;;;;;;;;;;;;;;;;;5094933;28;852;-63
2022/06/03 13:05:33;;;;;;;;;;;;;;;;;;5093409;28;1206;-62
2022/06/03 13:08:10;;;;;;;;;;;;;;;;;;5095406;28;817;-62
2022/06/03 13:10:54;;;;;;;;;;;;;;;;;;5094955;28;1016;-63
2022/06/03 13:13:39;;;;;;;;;;;;;;;;;;5092659;28;1714;-62
2022/06/03 13:16:17;;;;;;;;;;;;;;;;;;5077937;28;1277;-62
2022/06/03 13:18:49;;;;;;;;;;;;;;;;;;5094509;28;1163;-62
2022/06/03 13:21:37;;;;;;;;;;;;;;;;;;5094527;28;738;-63
2022/06/03 13:24:21;;;;;;;;;;;;;;;;;;5093805;28;1198;-63
2022/06/03 13:26:47;;;;;;;;;;;;;;;;;;5094681;28;923;-62
2022/06/03 13:29:33;;;;;;;;;;;;;;;;;;5094485;28;841;-62
2022/06/03 13:32:00;;;;;;;;;;;;;;;;;;5093588;28;1965;-63
2022/06/03 13:34:30;;;;;;;;;;;;;;;;;;5094550;28;876;-62
2022/06/03 13:37:15;;;;;;;;;;;;;;;;;;5093637;28;856;-63
2022/06/03 13:39:40;;;;;;;;;;;;;;;;;;5093831;28;1787;-62
2022/06/03 13:45:00;;;;;;;;;;;;;;;;;;5094177;28;705;-63
2022/06/03 13:47:28;;;;;;;;;;;;;;;;;;5094383;28;880;-62
2022/06/03 13:49:55;;;;;;;;;;;;;;;;;;5093460;28;915;-62
2022/06/03 13:52:23;;;;;;;;;;;;;;;;;;5093306;28;1894;-62
2022/06/03 13:54:52;;;;;;;;;;;;;;;;;;5093565;28;1085;-63
2022/06/03 13:57:37;;;;;;;;;;;;;;;;;;5093799;28;871;-63
2022/06/03 14:00:11;;;;;;;;;;;;;;;;;;5093021;28;848;-63
2022/06/03 14:02:38;;;;;;;;;;;;;;;;;;5093612;28;951;-63
2022/06/03 14:05:14;;;;;;;;;;;;;;;;;;5093490;28;844;-63
2022/06/03 14:07:45;;;;;;;;;;;;;;;;;;5094041;28;963;-63
2022/06/03 14:10:18;;;;;;;;;;;;;;;;;;5091377;28;1260;-63
2022/06/03 14:12:51;;;;;;;;;;;;;;;;;;5093060;28;1947;-63
2022/06/03 14:15:26;;;;;;;;;;;;;;;;;;5093356;28;990;-62
2022/06/03 14:17:53;;;;;;;;;;;;;;;;;;5093182;28;939;-62
2022/06/03 14:20:24;;;;;;;;;;;;;;;;;;5092890;28;1061;-62
2022/06/03 14:23:00;;;;;;;;;;;;;;;;;;5092909;28;883;-62
2022/06/03 14:25:28;;;;;;;;;;;;;;;;;;5092871;28;841;-63
2022/06/03 14:28:12;;;;;;;;;;;;;;;;;;5091128;28;1075;-62
2022/06/03 14:30:49;;;;;;;;;;;;;;;;;;5092830;28;836;-62
2022/06/03 14:33:15;;;;;;;;;;;;;;;;;;5092854;28;1910;-62
2022/06/03 14:35:43;;;;;;;;;;;;;;;;;;5092385;28;979;-62
2022/06/03 14:38:14;;;;;;;;;;;;;;;;;;5092813;28;864;-63
2022/06/03 14:40:41;;;;;;;;;;;;;;;;;;5092638;28;860;-63
2022/06/03 14:43:08;;;;;;;;;;;;;;;;;;5092938;28;742;-63
2022/06/03 14:45:37;;;;;;;;;;;;;;;;;;5092309;28;1015;-63
2022/06/03 14:48:07;;;;;;;;;;;;;;;;;;5092982;28;762;-63
2022/06/03 14:50:38;;;;;;;;;;;;;;;;;;5092325;28;1162;-63
2022/06/03 14:53:22;;;;;;;;;;;;;;;;;;5093165;28;1957;-63
2022/06/03 14:56:01;;;;;;;;;;;;;;;;;;5092441;28;967;-63
2022/06/03 14:58:29;;;;;;;;;;;;;;;;;;5088024;28;1672;-63
2022/06/03 15:01:13;;;;;;;;;;;;;;;;;;5083058;28;1423;-63
2022/06/03 15:03:41;;;;;;;;;;;;;;;;;;5071928;28;852;-63
2022/06/03 15:06:13;;;;;;;;;;;;;;;;;;5077940;28;1627;-63
2022/06/03 15:08:48;;;;;;;;;;;;;;;;;;5088567;28;1563;-63
2022/06/03 15:11:13;;;;;;;;;;;;;;;;;;5090162;28;1983;-63
2022/06/03 15:13:38;;;;;;;;;;;;;;;;;;5104999;28;1222;-63
2022/06/03 15:16:05;;;;;;;;;;;;;;;;;;5111837;28;1147;-63
2022/06/03 15:18:31;;;;;;;;;;;;;;;;;;5111437;28;1225;-63
2022/06/03 15:21:05;;;;;;;;;;;;;;;;;;5110162;28;841;-63
2022/06/03 15:23:31;;;;;;;;;;;;;;;;;;5111421;28;1154;-68
2022/06/03 15:25:58;;;;;;;;;;;;;;;;;;5111655;28;1265;-63
2022/06/03 15:28:26;;;;;;;;;;;;;;;;;;5111772;28;777;-62
2022/06/03 15:31:02;;;;;;;;;;;;;;;;;;5111804;28;868;-62
2022/06/03 15:33:34;;;;;;;;;;;;;;;;;;5112301;28;840;-62
2022/06/03 15:36:01;;;;;;;;;;;;;;;;;;5112214;28;812;-62
2022/06/03 15:38:31;;;;;;;;;;;;;;;;;;5112080;28;911;-61
2022/06/03 15:40:57;;;;;;;;;;;;;;;;;;5112084;28;912;-62
2022/06/03 15:43:25;;;;;;;;;;;;;;;;;;5111861;28;896;-61
2022/06/03 15:45:51;;;;;;;;;;;;;;;;;;5111813;28;813;-62
2022/06/03 15:48:26;;;;;;;;;;;;;;;;;;5112767;28;883;-62
2022/06/03 15:50:59;;;;;;;;;;;;;;;;;;5111940;28;1175;-62
2022/06/03 15:53:24;;;;;;;;;;;;;;;;;;5091917;28;1151;-63
2022/06/03 15:56:08;;;;;;;;;;;;;;;;;;5091543;28;754;-63
2022/06/03 15:58:52;;;;;;;;;;;;;;;;;;5091340;28;942;-63
2022/06/03 16:01:17;;;;;;;;;;;;;;;;;;5089701;28;1373;-63
2022/06/03 16:03:55;;;;;;;;;;;;;;;;;;5091108;28;915;-63
2022/06/03 16:06:23;;;;;;;;;;;;;;;;;;5091702;28;863;-63
2022/06/03 16:09:01;;;;;;;;;;;;;;;;;;5090436;28;923;-63
2022/06/03 16:11:42;;;;;;;;;;;;;;;;;;5090700;28;1906;-63
2022/06/03 16:14:24;;;;;;;;;;;;;;;;;;5091895;28;971;-63
2022/06/03 16:16:50;;;;;;;;;;;;;;;;;;5091695;28;900;-64
2022/06/03 16:19:28;;;;;;;;;;;;;;;;;;5091622;28;1248;-64
2022/06/03 16:21:53;;;;;;;;;;;;;;;;;;5091591;28;876;-64
2022/06/03 16:24:24;;;;;;;;;;;;;;;;;;5090105;28;1221;-64
2022/06/03 16:27:16;;;;;;;;;;;;;;;;;;5091402;28;896;-64
2022/06/03 16:29:44;;;;;;;;;;;;;;;;;;5088815;28;1429;-64
2022/06/03 16:32:22;;;;;;;;;;;;;;;;;;5091472;28;1913;-64
2022/06/03 16:34:47;;;;;;;;;;;;;;;;;;5090039;28;1077;-63
2022/06/03 16:37:12;;;;;;;;;;;;;;;;;;5091372;28;825;-64
2022/06/03 16:39:41;;;;;;;;;;;;;;;;;;5090759;28;836;-64
2022/06/03 16:42:18;;;;;;;;;;;;;;;;;;5090095;28;1129;-64
2022/06/03 16:44:48;;;;;;;;;;;;;;;;;;5090570;28;903;-64
2022/06/03 16:47:22;;;;;;;;;;;;;;;;;;5090837;28;1154;-64
2022/06/03 16:50:07;;;;;;;;;;;;;;;;;;5090278;28;813;-64
2022/06/03 16:52:37;;;;;;;;;;;;;;;;;;5090870;28;1948;-62
2022/06/03 16:55:13;;;;;;;;;;;;;;;;;;5091198;28;781;-63
2022/06/03 16:57:39;;;;;;;;;;;;;;;;;;5086310;28;1665;-63
2022/06/03 17:00:04;;;;;;;;;;;;;;;;;;5084132;28;1398;-63
2022/06/03 17:02:30;;;;;;;;;;;;;;;;;;5087954;28;1388;-62
2022/06/03 17:04:55;;;;;;;;;;;;;;;;;;5089146;28;920;-63
2022/06/03 17:07:30;;;;;;;;;;;;;;;;;;5090860;28;766;-63
2022/06/03 17:09:58;;;;;;;;;;;;;;;;;;5090523;28;1016;-63
2022/06/03 17:12:23;;;;;;;;;;;;;;;;;;5090514;28;1893;-63
2022/06/03 17:14:49;;;;;;;;;;;;;;;;;;5090300;28;1046;-63
2022/06/03 17:17:23;;;;;;;;;;;;;;;;;;5090706;28;1061;-63
2022/06/03 17:20:01;;;;;;;;;;;;;;;;;;5090101;28;762;-63
2022/06/03 17:22:28;;;;;;;;;;;;;;;;;;5090637;28;932;-63
2022/06/03 17:24:56;;;;;;;;;;;;;;;;;;5090246;28;952;-63
2022/06/03 17:27:24;;;;;;;;;;;;;;;;;;5090827;28;938;-62
2022/06/03 17:29:53;;;;;;;;;;;;;;;;;;5089951;28;848;-62
2022/06/03 17:32:30;;;;;;;;;;;;;;;;;;5090581;28;1989;-62
2022/06/03 17:35:04;;;;;;;;;;;;;;;;;;5088733;28;1223;-62
2022/06/03 17:37:32;;;;;;;;;;;;;;;;;;5094623;28;994;-62
2022/06/03 17:40:20;;;;;;;;;;;;;;;;;;5094421;28;829;-62
2022/06/03 17:42:57;;;;;;;;;;;;;;;;;;5093872;28;892;-62
2022/06/03 17:45:27;;;;;;;;;;;;;;;;;;5094426;28;892;-63
2022/06/03 17:47:52;;;;;;;;;;;;;;;;;;5093754;28;785;-63
2022/06/03 17:50:29;;;;;;;;;;;;;;;;;;5094504;28;1022;-63
2022/06/03 17:56:05;;;;;;;;;;;;;;;;;;5093711;28;746;-63
2022/06/03 17:58:30;;;;;;;;;;;;;;;;;;5093543;28;861;-70
2022/06/03 18:01:02;;;;;;;;;;;;;;;;;;5093658;28;1050;-62
2022/06/03 18:03:30;;;;;;;;;;;;;;;;;;5093924;28;924;-63
2022/06/03 18:06:13;;;;;;;;;;;;;;;;;;5093361;28;946;-63
2022/06/03 18:09:02;;;;;;;;;;;;;;;;;;5093772;28;837;-62
2022/06/03 18:11:30;;;;;;;;;;;;;;;;;;5093885;28;1898;-63
2022/06/03 18:14:04;;;;;;;;;;;;;;;;;;5092933;28;1207;-62
2022/06/03 18:16:29;;;;;;;;;;;;;;;;;;5093988;28;912;-62
2022/06/03 18:19:03;;;;;;;;;;;;;;;;;;5092475;28;868;-63
2022/06/03 18:21:28;;;;;;;;;;;;;;;;;;5094158;28;1249;-63
2022/06/03 18:23:54;;;;;;;;;;;;;;;;;;5093358;28;912;-63